Chemstar Masa — 3FGM7 — position and weather

sailwx.info

Track history (hours):
 
Tides and Currents Weather Stations Pressure Air Temp Water Temp Dewpoint Dewpoint Depression Visibility Wind Speed Wind Dir Waves Ship Positions

Chemstar Masa

Last reported at 2017-Aug-20 05:54 UTC. Time now 2017-Aug-23 06:18 UTC.
Position N 30°21' E 032°22'.

Length 148 m; draft 10 m.

Type: Ship (hazmat cat C). MMSI: 353456000.

Date/timePositionNaut miles runAvg speedWind from/ knotsBaromVisibWave heightAir tempDewpointWater temp
2017-Aug-20 05:54N 30°21' E 032°22'0 0.0
2017-Aug-20 04:33N 30°21' E 032°22'0 0.3
2017-Aug-20 04:31N 30°21' E 032°22'0 0.1
2017-Aug-20 04:00N 30°21' E 032°22'38 8.3
2017-Aug-19 23:28N 30°58' E 032°19'5 9.1
2017-Aug-19 22:57N 31°03' E 032°19'4 8.9
2017-Aug-19 22:31N 31°07' E 032°19'5 9.4
2017-Aug-19 21:57N 31°12' E 032°20'10 2.1
2017-Aug-19 17:09N 31°22' E 032°19'0 0.0
2017-Aug-19 17:00N 31°22' E 032°19'0 0.0
2017-Aug-19 16:30N 31°22' E 032°19'0 0.0
2017-Aug-19 15:54N 31°22' E 032°19'0 0.0
2017-Aug-19 15:30N 31°22' E 032°19'0 0.0
2017-Aug-19 15:00N 31°22' E 032°19'0 0.0
2017-Aug-19 12:24N 31°22' E 032°19'0 0.0
2017-Aug-19 12:00N 31°22' E 032°19'0 0.0
2017-Aug-19 11:30N 31°22' E 032°19'0 0.0
2017-Aug-19 11:00N 31°22' E 032°19'63413.3
2017-Aug-17 11:21N 34°51' E 020°25'514.3
2017-Aug-17 11:00N 34°52' E 020°19'6614.2
2017-Aug-17 06:18N 35°11' E 019°01'414.0
2017-Aug-17 06:00N 35°13' E 018°56'714.1
2017-Aug-17 05:30N 35°15' E 018°48'12114.1
2017-Aug-16 20:56N 35°50' E 016°25'614.1
2017-Aug-16 20:30N 35°51' E 016°18'914.1
2017-Aug-16 19:52N 35°54' E 016°07'514.1
2017-Aug-16 19:30N 35°56' E 016°01'714.3
2017-Aug-16 19:00N 35°58' E 015°53'714.3
2017-Aug-16 18:30N 35°60' E 015°44'914.4
2017-Aug-16 17:53N 36°02' E 015°34'514.2
2017-Aug-16 17:30N 36°04' E 015°27'714.2
2017-Aug-16 17:00N 36°06' E 015°19'714.2
2017-Aug-16 16:30N 36°08' E 015°11'714.4
2017-Aug-16 16:00N 36°10' E 015°02'714.4
2017-Aug-16 15:30N 36°12' E 014°54'714.2
2017-Aug-16 15:00N 36°14' E 014°45'714.2
2017-Aug-16 14:30N 36°16' E 014°37'713.9
2017-Aug-16 14:00N 36°18' E 014°29'713.8
2017-Aug-16 13:30N 36°20' E 014°20'713.8
2017-Aug-16 13:00N 36°22' E 014°12'713.8
2017-Aug-16 12:30N 36°24' E 014°04'713.9
2017-Aug-16 12:00N 36°26' E 013°56'714.0
2017-Aug-16 11:30N 36°29' E 013°48'714.1
2017-Aug-16 11:00N 36°32' E 013°40'714.3
2017-Aug-16 10:30N 36°34' E 013°31'714.4
2017-Aug-16 10:00N 36°37' E 013°23'714.4
2017-Aug-16 09:30N 36°40' E 013°15'714.3
2017-Aug-16 09:00N 36°42' E 013°06'714.3
2017-Aug-16 08:30N 36°45' E 012°58'714.5
2017-Aug-16 08:00N 36°48' E 012°50'714.4
2017-Aug-16 07:30N 36°51' E 012°42'714.3
2017-Aug-16 07:00N 36°53' E 012°33'714.0
2017-Aug-16 06:30N 36°56' E 012°25'813.8
2017-Aug-16 05:55N 36°59' E 012°16'614.0
2017-Aug-16 05:30N 37°01' E 012°09'714.2
2017-Aug-16 05:00N 37°04' E 012°01'714.1
2017-Aug-16 04:30N 37°07' E 011°53'714.3
2017-Aug-16 04:00N 37°09' E 011°44'1014.2
2017-Aug-16 03:18N 37°13' E 011°33'414.4
2017-Aug-16 03:00N 37°15' E 011°28'714.4
2017-Aug-16 02:30N 37°18' E 011°19'714.6
2017-Aug-16 02:00N 37°21' E 011°11'714.5
2017-Aug-16 01:30N 37°25' E 011°03'1414.4
2017-Aug-16 00:31N 37°31' E 010°48'115.5
2017-Aug-16 00:29N 37°31' E 010°47'714.6
2017-Aug-15 23:59N 37°33' E 010°38'714.6
2017-Aug-15 23:30N 37°34' E 010°29'814.4
2017-Aug-15 22:58N 37°34' E 010°19'714.4
2017-Aug-15 22:27N 37°34' E 010°10'614.1
2017-Aug-15 22:00N 37°34' E 010°02'713.9
2017-Aug-15 21:30N 37°34' E 009°53'713.8
2017-Aug-15 21:00N 37°34' E 009°45'813.8
2017-Aug-15 20:25N 37°34' E 009°34'613.6
2017-Aug-15 19:59N 37°35' E 009°27'713.7
2017-Aug-15 19:29N 37°37' E 009°19'611.9
2017-Aug-15 19:00N 37°40' E 009°13'713.4
2017-Aug-15 18:30N 37°42' E 009°05'1913.3
2017-Aug-15 17:03N 37°40' E 008°41'412.8
2017-Aug-15 16:47N 37°40' E 008°36'412.7
2017-Aug-15 16:27N 37°40' E 008°31'712.7
2017-Aug-15 15:56N 37°38' E 008°23'512.8
2017-Aug-15 15:30N 37°37' E 008°16'612.8
2017-Aug-15 15:00N 37°36' E 008°08'8213.8
2017-Aug-15 09:05N 37°26' E 006°26'213.5
2017-Aug-15 08:57N 37°26' E 006°24'613.4
2017-Aug-15 08:31N 37°25' E 006°16'713.6
2017-Aug-15 08:00N 37°24' E 006°08'1513.5
2017-Aug-15 06:54N 37°23' E 005°49'513.9
2017-Aug-15 06:30N 37°22' E 005°42'1814.0
2017-Aug-15 05:14N 37°20' E 005°20'414.2
2017-Aug-15 04:59N 37°20' E 005°16'814.2
2017-Aug-15 04:23N 37°19' E 005°05'614.0
2017-Aug-15 03:59N 37°19' E 004°58'713.9
2017-Aug-15 03:30N 37°18' E 004°49'713.9
2017-Aug-15 03:00N 37°17' E 004°41'713.8
2017-Aug-15 02:29N 37°17' E 004°32'1114.2
2017-Aug-15 01:44N 37°16' E 004°19'414.0
2017-Aug-15 01:26N 37°15' E 004°13'4613.4
2017-Aug-14 22:00N 37°10' E 003°16'612.2
2017-Aug-14 21:30N 37°10' E 003°08'713.1
2017-Aug-14 20:59N 37°10' E 003°00'613.1
2017-Aug-14 20:30N 37°09' E 002°52'613.2
2017-Aug-14 20:00N 37°08' E 002°44'712.9
2017-Aug-14 19:30N 37°08' E 002°36'713.0
2017-Aug-14 19:00N 37°07' E 002°28'612.7
2017-Aug-14 18:30N 37°06' E 002°20'1512.7
2017-Aug-14 17:18N 37°05' E 002°01'13013.1
2017-Aug-14 07:20N 36°34' W 000°37'512.8
2017-Aug-14 06:59N 36°32' W 000°43'612.7
2017-Aug-14 06:30N 36°31' W 000°50'4713.0
2017-Aug-14 02:52N 36°20' W 001°47'3113.3
2017-Aug-14 00:31N 36°15' W 002°25'113.5
2017-Aug-14 00:26N 36°15' W 002°27'913.5
2017-Aug-13 23:47N 36°14' W 002°37'1013.4
2017-Aug-13 23:05N 36°11' W 002°49'113.5
2017-Aug-13 23:00N 36°11' W 002°50'1813.1
2017-Aug-13 21:40N 36°11' W 003°12'9014.6
2017-Aug-13 15:30N 36°01' W 005°02'714.2
2017-Aug-13 15:01N 36°01' W 005°11'713.6
2017-Aug-13 14:30N 35°60' W 005°19'611.9
2017-Aug-13 14:01N 36°06' W 005°22'1 2.1
2017-Aug-13 13:28N 36°07' W 005°22'0 0.0
2017-Aug-13 12:58N 36°07' W 005°22'0 0.1
2017-Aug-13 12:25N 36°07' W 005°22'0 0.0
2017-Aug-13 11:58N 36°07' W 005°22'0 0.1
2017-Aug-13 10:55N 36°07' W 005°22'0 0.1
2017-Aug-13 10:25N 36°07' W 005°22'0 0.1
2017-Aug-13 09:58N 36°07' W 005°22'0 0.0
2017-Aug-13 09:28N 36°07' W 005°22'0 0.2
2017-Aug-13 09:00N 36°07' W 005°21'1 1.9
2017-Aug-13 08:30N 36°06' W 005°22'5 9.1
2017-Aug-13 08:00N 36°02' W 005°24'511.0
2017-Aug-13 07:30N 35°58' W 005°29'813.2
2017-Aug-13 06:52N 35°56' W 005°39'613.2
2017-Aug-13 06:23N 35°55' W 005°47'11112.9
2017-Aug-12 21:49N 34°39' W 007°26'413.3
2017-Aug-12 21:30N 34°36' W 007°29'  
2017-Aug-10 13:09N 33°08' W 008°38'3 5.4
2017-Aug-10 12:40N 33°08' W 008°41'  
Track history (hours):
 
Tides and Currents Weather Stations Pressure Air Temp Water Temp Dewpoint Dewpoint Depression Visibility Wind Speed Wind Dir Waves Ship Positions

Chemstar Masa

Last reported at 2017-Aug-20 05:54 UTC. Time now 2017-Aug-23 06:18 UTC.
Position N 30°21' E 032°22'.

Length 148 m; draft 10 m.

Type: Ship (hazmat cat C). MMSI: 353456000.

Date/timePositionNaut miles runAvg speedWind from/ knotsBaromVisibWave heightAir tempDewpointWater temp
2017-Aug-20 05:54N 30°21' E 032°22'0 0.0
2017-Aug-20 04:33N 30°21' E 032°22'0 0.3
2017-Aug-20 04:31N 30°21' E 032°22'0 0.1
2017-Aug-20 04:00N 30°21' E 032°22'38 8.3
2017-Aug-19 23:28N 30°58' E 032°19'5 9.1
2017-Aug-19 22:57N 31°03' E 032°19'4 8.9
2017-Aug-19 22:31N 31°07' E 032°19'5 9.4
2017-Aug-19 21:57N 31°12' E 032°20'10 2.1
2017-Aug-19 17:09N 31°22' E 032°19'0 0.0
2017-Aug-19 17:00N 31°22' E 032°19'0 0.0
2017-Aug-19 16:30N 31°22' E 032°19'0 0.0
2017-Aug-19 15:54N 31°22' E 032°19'0 0.0
2017-Aug-19 15:30N 31°22' E 032°19'0 0.0
2017-Aug-19 15:00N 31°22' E 032°19'0 0.0
2017-Aug-19 12:24N 31°22' E 032°19'0 0.0
2017-Aug-19 12:00N 31°22' E 032°19'0 0.0
2017-Aug-19 11:30N 31°22' E 032°19'0 0.0
2017-Aug-19 11:00N 31°22' E 032°19'63413.3
2017-Aug-17 11:21N 34°51' E 020°25'514.3
2017-Aug-17 11:00N 34°52' E 020°19'6614.2
2017-Aug-17 06:18N 35°11' E 019°01'414.0
2017-Aug-17 06:00N 35°13' E 018°56'714.1
2017-Aug-17 05:30N 35°15' E 018°48'12114.1
2017-Aug-16 20:56N 35°50' E 016°25'614.1
2017-Aug-16 20:30N 35°51' E 016°18'914.1
2017-Aug-16 19:52N 35°54' E 016°07'514.1
2017-Aug-16 19:30N 35°56' E 016°01'714.3
2017-Aug-16 19:00N 35°58' E 015°53'714.3
2017-Aug-16 18:30N 35°60' E 015°44'914.4
2017-Aug-16 17:53N 36°02' E 015°34'514.2
2017-Aug-16 17:30N 36°04' E 015°27'714.2
2017-Aug-16 17:00N 36°06' E 015°19'714.2
2017-Aug-16 16:30N 36°08' E 015°11'714.4
2017-Aug-16 16:00N 36°10' E 015°02'714.4
2017-Aug-16 15:30N 36°12' E 014°54'714.2
2017-Aug-16 15:00N 36°14' E 014°45'714.2
2017-Aug-16 14:30N 36°16' E 014°37'713.9
2017-Aug-16 14:00N 36°18' E 014°29'713.8
2017-Aug-16 13:30N 36°20' E 014°20'713.8
2017-Aug-16 13:00N 36°22' E 014°12'713.8
2017-Aug-16 12:30N 36°24' E 014°04'713.9
2017-Aug-16 12:00N 36°26' E 013°56'714.0
2017-Aug-16 11:30N 36°29' E 013°48'714.1
2017-Aug-16 11:00N 36°32' E 013°40'714.3
2017-Aug-16 10:30N 36°34' E 013°31'714.4
2017-Aug-16 10:00N 36°37' E 013°23'714.4
2017-Aug-16 09:30N 36°40' E 013°15'714.3
2017-Aug-16 09:00N 36°42' E 013°06'714.3
2017-Aug-16 08:30N 36°45' E 012°58'714.5
2017-Aug-16 08:00N 36°48' E 012°50'714.4
2017-Aug-16 07:30N 36°51' E 012°42'714.3
2017-Aug-16 07:00N 36°53' E 012°33'714.0
2017-Aug-16 06:30N 36°56' E 012°25'813.8
2017-Aug-16 05:55N 36°59' E 012°16'614.0
2017-Aug-16 05:30N 37°01' E 012°09'714.2
2017-Aug-16 05:00N 37°04' E 012°01'714.1
2017-Aug-16 04:30N 37°07' E 011°53'714.3
2017-Aug-16 04:00N 37°09' E 011°44'1014.2
2017-Aug-16 03:18N 37°13' E 011°33'414.4
2017-Aug-16 03:00N 37°15' E 011°28'714.4
2017-Aug-16 02:30N 37°18' E 011°19'714.6
2017-Aug-16 02:00N 37°21' E 011°11'714.5
2017-Aug-16 01:30N 37°25' E 011°03'1414.4
2017-Aug-16 00:31N 37°31' E 010°48'115.5
2017-Aug-16 00:29N 37°31' E 010°47'714.6
2017-Aug-15 23:59N 37°33' E 010°38'714.6
2017-Aug-15 23:30N 37°34' E 010°29'814.4
2017-Aug-15 22:58N 37°34' E 010°19'714.4
2017-Aug-15 22:27N 37°34' E 010°10'614.1
2017-Aug-15 22:00N 37°34' E 010°02'713.9
2017-Aug-15 21:30N 37°34' E 009°53'713.8
2017-Aug-15 21:00N 37°34' E 009°45'813.8
2017-Aug-15 20:25N 37°34' E 009°34'613.6
2017-Aug-15 19:59N 37°35' E 009°27'713.7
2017-Aug-15 19:29N 37°37' E 009°19'611.9
2017-Aug-15 19:00N 37°40' E 009°13'713.4
2017-Aug-15 18:30N 37°42' E 009°05'1913.3
2017-Aug-15 17:03N 37°40' E 008°41'412.8
2017-Aug-15 16:47N 37°40' E 008°36'412.7
2017-Aug-15 16:27N 37°40' E 008°31'712.7
2017-Aug-15 15:56N 37°38' E 008°23'512.8
2017-Aug-15 15:30N 37°37' E 008°16'612.8
2017-Aug-15 15:00N 37°36' E 008°08'8213.8
2017-Aug-15 09:05N 37°26' E 006°26'213.5
2017-Aug-15 08:57N 37°26' E 006°24'613.4
2017-Aug-15 08:31N 37°25' E 006°16'713.6
2017-Aug-15 08:00N 37°24' E 006°08'1513.5
2017-Aug-15 06:54N 37°23' E 005°49'513.9
2017-Aug-15 06:30N 37°22' E 005°42'1814.0
2017-Aug-15 05:14N 37°20' E 005°20'414.2
2017-Aug-15 04:59N 37°20' E 005°16'814.2
2017-Aug-15 04:23N 37°19' E 005°05'614.0
2017-Aug-15 03:59N 37°19' E 004°58'713.9
2017-Aug-15 03:30N 37°18' E 004°49'713.9
2017-Aug-15 03:00N 37°17' E 004°41'713.8
2017-Aug-15 02:29N 37°17' E 004°32'1114.2
2017-Aug-15 01:44N 37°16' E 004°19'414.0
2017-Aug-15 01:26N 37°15' E 004°13'4613.4
2017-Aug-14 22:00N 37°10' E 003°16'612.2
2017-Aug-14 21:30N 37°10' E 003°08'713.1
2017-Aug-14 20:59N 37°10' E 003°00'613.1
2017-Aug-14 20:30N 37°09' E 002°52'613.2
2017-Aug-14 20:00N 37°08' E 002°44'712.9
2017-Aug-14 19:30N 37°08' E 002°36'713.0
2017-Aug-14 19:00N 37°07' E 002°28'612.7
2017-Aug-14 18:30N 37°06' E 002°20'1512.7
2017-Aug-14 17:18N 37°05' E 002°01'13013.1
2017-Aug-14 07:20N 36°34' W 000°37'512.8
2017-Aug-14 06:59N 36°32' W 000°43'612.7
2017-Aug-14 06:30N 36°31' W 000°50'4713.0
2017-Aug-14 02:52N 36°20' W 001°47'3113.3
2017-Aug-14 00:31N 36°15' W 002°25'113.5
2017-Aug-14 00:26N 36°15' W 002°27'913.5
2017-Aug-13 23:47N 36°14' W 002°37'1013.4
2017-Aug-13 23:05N 36°11' W 002°49'113.5
2017-Aug-13 23:00N 36°11' W 002°50'1813.1
2017-Aug-13 21:40N 36°11' W 003°12'9014.6
2017-Aug-13 15:30N 36°01' W 005°02'714.2
2017-Aug-13 15:01N 36°01' W 005°11'713.6
2017-Aug-13 14:30N 35°60' W 005°19'611.9
2017-Aug-13 14:01N 36°06' W 005°22'1 2.1
2017-Aug-13 13:28N 36°07' W 005°22'0 0.0
2017-Aug-13 12:58N 36°07' W 005°22'0 0.1
2017-Aug-13 12:25N 36°07' W 005°22'0 0.0
2017-Aug-13 11:58N 36°07' W 005°22'0 0.1
2017-Aug-13 10:55N 36°07' W 005°22'0 0.1
2017-Aug-13 10:25N 36°07' W 005°22'0 0.1
2017-Aug-13 09:58N 36°07' W 005°22'0 0.0
2017-Aug-13 09:28N 36°07' W 005°22'0 0.2
2017-Aug-13 09:00N 36°07' W 005°21'1 1.9
2017-Aug-13 08:30N 36°06' W 005°22'5 9.1
2017-Aug-13 08:00N 36°02' W 005°24'511.0
2017-Aug-13 07:30N 35°58' W 005°29'813.2
2017-Aug-13 06:52N 35°56' W 005°39'613.2
2017-Aug-13 06:23N 35°55' W 005°47'11112.9
2017-Aug-12 21:49N 34°39' W 007°26'413.3
2017-Aug-12 21:30N 34°36' W 007°29'  
2017-Aug-10 13:09N 33°08' W 008°38'3 5.4
2017-Aug-10 12:40N 33°08' W 008°41'  

Dump ship's entire track history